sensor_id;sensor_type;location;lat;lon;timestamp;pressure;altitude;pressure_sealevel;temperature;humidity
70407;BME280;57821;52.202;0.154;2023-03-21T00:01:49;101280.38;;;10.02;100.00
70407;BME280;57821;52.202;0.154;2023-03-21T00:04:16;101289.91;;;10.06;100.00
70407;BME280;57821;52.202;0.154;2023-03-21T00:06:42;101280.41;;;10.05;100.00
70407;BME280;57821;52.202;0.154;2023-03-21T00:09:09;101280.41;;;10.05;100.00
70407;BME280;57821;52.202;0.154;2023-03-21T00:11:35;101275.19;;;10.02;100.00
70407;BME280;57821;52.202;0.154;2023-03-21T00:14:02;101279.56;;;10.06;100.00
70407;BME280;57821;52.202;0.154;2023-03-21T00:16:28;101276.97;;;10.06;100.00
70407;BME280;57821;52.202;0.154;2023-03-21T00:19:00;101274.38;;;10.06;100.00
70407;BME280;57821;52.202;0.154;2023-03-21T00:21:27;101273.50;;;10.05;100.00
70407;BME280;57821;52.202;0.154;2023-03-21T00:24:14;101264.00;;;10.04;100.00
70407;BME280;57821;52.202;0.154;2023-03-21T00:26:40;101266.56;;;10.03;100.00
70407;BME280;57821;52.202;0.154;2023-03-21T00:29:07;101257.06;;;10.03;100.00
70407;BME280;57821;52.202;0.154;2023-03-21T00:31:33;101257.91;;;10.02;100.00
70407;BME280;57821;52.202;0.154;2023-03-21T00:34:00;101244.97;;;10.02;100.00
70407;BME280;57821;52.202;0.154;2023-03-21T00:36:29;101251.88;;;10.02;100.00
70407;BME280;57821;52.202;0.154;2023-03-21T00:38:57;101247.56;;;10.01;100.00
70407;BME280;57821;52.202;0.154;2023-03-21T00:41:24;101244.09;;;10.02;100.00
70407;BME280;57821;52.202;0.154;2023-03-21T00:44:06;101233.72;;;9.99;100.00
70407;BME280;57821;52.202;0.154;2023-03-21T00:46:33;101237.22;;;10.01;100.00
70407;BME280;57821;52.202;0.154;2023-03-21T00:49:10;101229.41;;;9.95;100.00
70407;BME280;57821;52.202;0.154;2023-03-21T00:51:39;101235.44;;;9.95;100.00
70407;BME280;57821;52.202;0.154;2023-03-21T00:54:06;101225.03;;;9.92;100.00
70407;BME280;57821;52.202;0.154;2023-03-21T00:56:33;101226.75;;;9.92;100.00
70407;BME280;57821;52.202;0.154;2023-03-21T00:58:59;101221.59;;;9.92;100.00
70407;BME280;57821;52.202;0.154;2023-03-21T01:01:26;101219.84;;;9.90;100.00
70407;BME280;57821;52.202;0.154;2023-03-21T01:03:52;101209.50;;;9.90;100.00
70407;BME280;57821;52.202;0.154;2023-03-21T01:06:19;101217.25;;;9.90;100.00
70407;BME280;57821;52.202;0.154;2023-03-21T01:08:46;101218.16;;;9.89;100.00
70407;BME280;57821;52.202;0.154;2023-03-21T01:11:22;101204.25;;;9.84;100.00
70407;BME280;57821;52.202;0.154;2023-03-21T01:13:50;101197.41;;;9.89;100.00
70407;BME280;57821;52.202;0.154;2023-03-21T01:16:27;101206.03;;;9.88;100.00
70407;BME280;57821;52.202;0.154;2023-03-21T01:18:54;101200.84;;;9.87;100.00
70407;BME280;57821;52.202;0.154;2023-03-21T01:21:21;101195.66;;;9.85;100.00
70407;BME280;57821;52.202;0.154;2023-03-21T01:23:47;101192.19;;;9.85;100.00
70407;BME280;57821;52.202;0.154;2023-03-21T01:26:14;101192.19;;;9.85;100.00
70407;BME280;57821;52.202;0.154;2023-03-21T01:28:43;101192.19;;;9.83;100.00
70407;BME280;57821;52.202;0.154;2023-03-21T01:31:12;101183.53;;;9.81;100.00
70407;BME280;57821;52.202;0.154;2023-03-21T01:33:39;101180.97;;;9.84;100.00
70407;BME280;57821;52.202;0.154;2023-03-21T01:36:07;101176.66;;;9.83;100.00
70407;BME280;57821;52.202;0.154;2023-03-21T01:38:41;101169.75;;;9.82;100.00
70407;BME280;57821;52.202;0.154;2023-03-21T01:43:48;101173.19;;;9.84;100.00
70407;BME280;57821;52.202;0.154;2023-03-21T01:46:37;101164.56;;;9.85;100.00
70407;BME280;57821;52.202;0.154;2023-03-21T01:50:00;101161.13;;;9.86;100.00
70407;BME280;57821;52.202;0.154;2023-03-21T01:52:38;101158.50;;;9.85;100.00
70407;BME280;57821;52.202;0.154;2023-03-21T01:55:15;101140.38;;;9.82;100.00
70407;BME280;57821;52.202;0.154;2023-03-21T01:57:52;101146.44;;;9.82;100.00
70407;BME280;57821;52.202;0.154;2023-03-21T02:00:39;101148.19;;;9.88;100.00
70407;BME280;57821;52.202;0.154;2023-03-21T02:03:19;101151.66;;;9.88;100.00
70407;BME280;57821;52.202;0.154;2023-03-21T02:06:15;101140.41;;;9.83;100.00
70407;BME280;57821;52.202;0.154;2023-03-21T02:08:51;101144.72;;;9.90;100.00
70407;BME280;57821;52.202;0.154;2023-03-21T02:11:19;101153.38;;;9.91;100.00
70407;BME280;57821;52.202;0.154;2023-03-21T02:13:48;101149.06;;;9.92;100.00
70407;BME280;57821;52.202;0.154;2023-03-21T02:22:42;101135.28;;;9.96;100.00
70407;BME280;57821;52.202;0.154;2023-03-21T02:28:18;101127.53;;;9.96;100.00
70407;BME280;57821;52.202;0.154;2023-03-21T02:44:43;101103.34;;;10.00;100.00
70407;BME280;57821;52.202;0.154;2023-03-21T02:47:26;101084.34;;;9.99;100.00
70407;BME280;57821;52.202;0.154;2023-03-21T02:50:04;101081.75;;;9.98;100.00
70407;BME280;57821;52.202;0.154;2023-03-21T02:52:35;101092.09;;;9.98;100.00
70407;BME280;57821;52.202;0.154;2023-03-21T02:55:12;101070.50;;;9.93;100.00
70407;BME280;57821;52.202;0.154;2023-03-21T02:57:49;101062.72;;;9.93;100.00
70407;BME280;57821;52.202;0.154;2023-03-21T03:00:19;101070.50;;;9.94;100.00
70407;BME280;57821;52.202;0.154;2023-03-21T03:02:47;101067.06;;;9.95;100.00
70407;BME280;57821;52.202;0.154;2023-03-21T03:05:23;101077.41;;;9.92;100.00
70407;BME280;57821;52.202;0.154;2023-03-21T03:08:26;101073.09;;;9.94;100.00
70407;BME280;57821;52.202;0.154;2023-03-21T03:11:22;101071.38;;;9.93;100.00
70407;BME280;57821;52.202;0.154;2023-03-21T03:19:34;101060.16;;;9.89;100.00
70407;BME280;57821;52.202;0.154;2023-03-21T03:22:26;101059.25;;;9.87;100.00
70407;BME280;57821;52.202;0.154;2023-03-21T03:25:00;101050.63;;;9.88;100.00
70407;BME280;57821;52.202;0.154;2023-03-21T03:27:52;101048.91;;;9.87;100.00
70407;BME280;57821;52.202;0.154;2023-03-21T03:30:21;101046.31;;;9.87;100.00
70407;BME280;57821;52.202;0.154;2023-03-21T03:32:58;101027.28;;;9.78;100.00
70407;BME280;57821;52.202;0.154;2023-03-21T03:35:27;101018.66;;;9.82;100.00
70407;BME280;57821;52.202;0.154;2023-03-21T03:37:57;101028.16;;;9.81;100.00
70407;BME280;57821;52.202;0.154;2023-03-21T03:40:30;101029.91;;;9.82;100.00
70407;BME280;57821;52.202;0.154;2023-03-21T03:43:28;101020.38;;;9.80;100.00
70407;BME280;57821;52.202;0.154;2023-03-21T03:46:01;101024.69;;;9.79;100.00
70407;BME280;57821;52.202;0.154;2023-03-21T03:51:38;101003.09;;;9.70;100.00
70407;BME280;57821;52.202;0.154;2023-03-21T03:54:36;101002.22;;;9.69;100.00
70407;BME280;57821;52.202;0.154;2023-03-21T03:57:04;101001.38;;;9.75;100.00
70407;BME280;57821;52.202;0.154;2023-03-21T03:59:36;101001.38;;;9.72;100.00
70407;BME280;57821;52.202;0.154;2023-03-21T04:02:25;100994.47;;;9.72;100.00
70407;BME280;57821;52.202;0.154;2023-03-21T04:04:53;100996.19;;;9.72;100.00
70407;BME280;57821;52.202;0.154;2023-03-21T04:07:20;100991.84;;;9.69;100.00
70407;BME280;57821;52.202;0.154;2023-03-21T04:09:49;100996.16;;;9.69;100.00
70407;BME280;57821;52.202;0.154;2023-03-21T04:12:18;100991.88;;;9.66;100.00
70407;BME280;57821;52.202;0.154;2023-03-21T04:15:08;100978.91;;;9.66;100.00
70407;BME280;57821;52.202;0.154;2023-03-21T04:17:41;100971.16;;;9.66;100.00
70407;BME280;57821;52.202;0.154;2023-03-21T04:20:08;100960.78;;;9.66;100.00
70407;BME280;57821;52.202;0.154;2023-03-21T04:22:40;100944.41;;;9.66;100.00
70407;BME280;57821;52.202;0.154;2023-03-21T04:25:07;100978.03;;;9.67;100.00
70407;BME280;57821;52.202;0.154;2023-03-21T04:27:35;100967.66;;;9.61;100.00
70407;BME280;57821;52.202;0.154;2023-03-21T04:30:37;100969.41;;;9.65;100.00
70407;BME280;57821;52.202;0.154;2023-03-21T04:33:10;100950.41;;;9.63;100.00
70407;BME280;57821;52.202;0.154;2023-03-21T04:35:40;100952.16;;;9.64;100.00
70407;BME280;57821;52.202;0.154;2023-03-21T04:38:06;100946.97;;;9.64;100.00
70407;BME280;57821;52.202;0.154;2023-03-21T04:40:33;100957.31;;;9.64;100.00
70407;BME280;57821;52.202;0.154;2023-03-21T04:42:59;100956.47;;;9.64;100.00
70407;BME280;57821;52.202;0.154;2023-03-21T04:45:27;100961.63;;;9.61;100.00
70407;BME280;57821;52.202;0.154;2023-03-21T04:47:53;100956.44;;;9.59;100.00
70407;BME280;57821;52.202;0.154;2023-03-21T04:50:20;100965.94;;;9.60;100.00
70407;BME280;57821;52.202;0.154;2023-03-21T04:52:46;100961.63;;;9.58;100.00
70407;BME280;57821;52.202;0.154;2023-03-21T04:55:13;100965.91;;;9.56;100.00
70407;BME280;57821;52.202;0.154;2023-03-21T04:57:39;100969.38;;;9.56;100.00
70407;BME280;57821;52.202;0.154;2023-03-21T05:00:09;100967.63;;;9.55;100.00
70407;BME280;57821;52.202;0.154;2023-03-21T05:02:46;100957.28;;;9.52;100.00
70407;BME280;57821;52.202;0.154;2023-03-21T05:05:13;100952.94;;;9.51;100.00
70407;BME280;57821;52.202;0.154;2023-03-21T05:07:40;100959.88;;;9.55;100.00
70407;BME280;57821;52.202;0.154;2023-03-21T05:10:09;100958.97;;;9.50;100.00
70407;BME280;57821;52.202;0.154;2023-03-21T05:12:38;100957.28;;;9.57;100.00
70407;BME280;57821;52.202;0.154;2023-03-21T05:15:05;100953.84;;;9.56;100.00
70407;BME280;57821;52.202;0.154;2023-03-21T05:17:32;100947.78;;;9.56;100.00
70407;BME280;57821;52.202;0.154;2023-03-21T05:19:59;100936.59;;;9.58;100.00
70407;BME280;57821;52.202;0.154;2023-03-21T05:22:25;100942.63;;;9.57;100.00
70407;BME280;57821;52.202;0.154;2023-03-21T05:24:52;100940.91;;;9.58;100.00
70407;BME280;57821;52.202;0.154;2023-03-21T05:27:30;100927.97;;;9.59;100.00
70407;BME280;57821;52.202;0.154;2023-03-21T05:29:57;100937.44;;;9.57;100.00
70407;BME280;57821;52.202;0.154;2023-03-21T05:32:24;100940.06;;;9.60;100.00
70407;BME280;57821;52.202;0.154;2023-03-21T05:34:50;100939.19;;;9.61;100.00
70407;BME280;57821;52.202;0.154;2023-03-21T05:37:21;100944.34;;;9.61;100.00
70407;BME280;57821;52.202;0.154;2023-03-21T05:39:49;100940.06;;;9.60;100.00
70407;BME280;57821;52.202;0.154;2023-03-21T05:42:22;100938.31;;;9.62;100.00
70407;BME280;57821;52.202;0.154;2023-03-21T05:44:50;100938.31;;;9.62;100.00
70407;BME280;57821;52.202;0.154;2023-03-21T05:47:22;100940.91;;;9.62;100.00
70407;BME280;57821;52.202;0.154;2023-03-21T05:49:50;100943.53;;;9.61;100.00
70407;BME280;57821;52.202;0.154;2023-03-21T05:52:18;100940.06;;;9.60;100.00
70407;BME280;57821;52.202;0.154;2023-03-21T05:54:45;100941.75;;;9.61;100.00
70407;BME280;57821;52.202;0.154;2023-03-21T05:57:11;100943.50;;;9.59;100.00
70407;BME280;57821;52.202;0.154;2023-03-21T05:59:54;100929.69;;;9.57;100.00
70407;BME280;57821;52.202;0.154;2023-03-21T06:02:20;100924.50;;;9.56;100.00
70407;BME280;57821;52.202;0.154;2023-03-21T06:04:47;100926.22;;;9.55;100.00
70407;BME280;57821;52.202;0.154;2023-03-21T06:07:15;100910.69;;;9.55;100.00
70407;BME280;57821;52.202;0.154;2023-03-21T06:09:42;100914.16;;;9.53;100.00
70407;BME280;57821;52.202;0.154;2023-03-21T06:12:10;100896.88;;;9.52;100.00
70407;BME280;57821;52.202;0.154;2023-03-21T06:14:41;100909.81;;;9.52;100.00
70407;BME280;57821;52.202;0.154;2023-03-21T06:17:21;100906.38;;;9.48;100.00
70407;BME280;57821;52.202;0.154;2023-03-21T06:19:54;100915.88;;;9.49;100.00
70407;BME280;57821;52.202;0.154;2023-03-21T06:22:29;100915.88;;;9.49;100.00
70407;BME280;57821;52.202;0.154;2023-03-21T06:24:56;100902.03;;;9.47;100.00
70407;BME280;57821;52.202;0.154;2023-03-21T06:27:23;100900.31;;;9.46;100.00
70407;BME280;57821;52.202;0.154;2023-03-21T06:29:52;100903.78;;;9.48;100.00
70407;BME280;57821;52.202;0.154;2023-03-21T06:32:20;100898.59;;;9.48;100.00
70407;BME280;57821;52.202;0.154;2023-03-21T06:34:51;100898.59;;;9.48;100.00
70407;BME280;57821;52.202;0.154;2023-03-21T06:37:18;100902.06;;;9.48;100.00
70407;BME280;57821;52.202;0.154;2023-03-21T06:39:45;100896.88;;;9.50;100.00
70407;BME280;57821;52.202;0.154;2023-03-21T06:42:12;100896.88;;;9.50;100.00
70407;BME280;57821;52.202;0.154;2023-03-21T06:44:39;100895.16;;;9.49;100.00
70407;BME280;57821;52.202;0.154;2023-03-21T06:47:12;100905.50;;;9.52;100.00
70407;BME280;57821;52.202;0.154;2023-03-21T06:49:40;100898.63;;;9.54;100.00
70407;BME280;57821;52.202;0.154;2023-03-21T06:52:09;100899.50;;;9.55;100.00
70407;BME280;57821;52.202;0.154;2023-03-21T06:54:36;100905.50;;;9.55;100.00
70407;BME280;57821;52.202;0.154;2023-03-21T06:57:09;100914.13;;;9.56;100.00
70407;BME280;57821;52.202;0.154;2023-03-21T06:59:37;100913.28;;;9.57;100.00
70407;BME280;57821;52.202;0.154;2023-03-21T07:02:14;100905.53;;;9.60;100.00
70407;BME280;57821;52.202;0.154;2023-03-21T07:04:49;100913.28;;;9.61;100.00
70407;BME280;57821;52.202;0.154;2023-03-21T07:07:23;100909.00;;;9.63;100.00
70407;BME280;57821;52.202;0.154;2023-03-21T07:09:50;100902.06;;;9.62;100.00
70407;BME280;57821;52.202;0.154;2023-03-21T07:12:16;100906.41;;;9.65;100.00
70407;BME280;57821;52.202;0.154;2023-03-21T07:14:59;100908.16;;;9.66;100.00
70407;BME280;57821;52.202;0.154;2023-03-21T07:17:26;100907.28;;;9.65;100.00
70407;BME280;57821;52.202;0.154;2023-03-21T07:19:55;100905.53;;;9.64;100.00
70407;BME280;57821;52.202;0.154;2023-03-21T07:22:22;100919.34;;;9.68;100.00
70407;BME280;57821;52.202;0.154;2023-03-21T07:24:49;100902.09;;;9.65;100.00
70407;BME280;57821;52.202;0.154;2023-03-21T07:27:32;100913.34;;;9.72;100.00
70407;BME280;57821;52.202;0.154;2023-03-21T07:29:58;100909.88;;;9.76;100.00
70407;BME280;57821;52.202;0.154;2023-03-21T07:32:25;100913.34;;;9.79;100.00
70407;BME280;57821;52.202;0.154;2023-03-21T07:34:51;100901.25;;;9.80;100.00
70407;BME280;57821;52.202;0.154;2023-03-21T07:37:18;100897.84;;;9.84;100.00
70407;BME280;57821;52.202;0.154;2023-03-21T07:39:44;100891.78;;;9.83;100.00
70407;BME280;57821;52.202;0.154;2023-03-21T07:42:11;100903.00;;;9.88;100.00
70407;BME280;57821;52.202;0.154;2023-03-21T07:44:38;100898.69;;;9.90;100.00
70407;BME280;57821;52.202;0.154;2023-03-21T07:47:05;100898.69;;;9.94;100.00
70407;BME280;57821;52.202;0.154;2023-03-21T07:49:32;100896.09;;;9.92;100.00
70407;BME280;57821;52.202;0.154;2023-03-21T07:51:59;100904.75;;;9.94;100.00
70407;BME280;57821;52.202;0.154;2023-03-21T07:54:25;100919.41;;;9.97;100.00
70407;BME280;57821;52.202;0.154;2023-03-21T07:56:52;100898.69;;;10.00;100.00
70407;BME280;57821;52.202;0.154;2023-03-21T07:59:18;100903.88;;;10.04;100.00
70407;BME280;57821;52.202;0.154;2023-03-21T08:01:45;100906.50;;;10.07;100.00
70407;BME280;57821;52.202;0.154;2023-03-21T08:04:11;100899.56;;;10.11;100.00
70407;BME280;57821;52.202;0.154;2023-03-21T08:06:38;100900.44;;;10.16;100.00
70407;BME280;57821;52.202;0.154;2023-03-21T08:09:05;100897.91;;;10.19;100.00
70407;BME280;57821;52.202;0.154;2023-03-21T08:11:31;100900.47;;;10.22;100.00
70407;BME280;57821;52.202;0.154;2023-03-21T08:13:58;100899.63;;;10.23;100.00
70407;BME280;57821;52.202;0.154;2023-03-21T08:16:25;100895.28;;;10.25;100.00
70407;BME280;57821;52.202;0.154;2023-03-21T08:18:52;100908.25;;;10.26;100.00
70407;BME280;57821;52.202;0.154;2023-03-21T08:21:18;100899.63;;;10.29;100.00
70407;BME280;57821;52.202;0.154;2023-03-21T08:23:45;100904.78;;;10.34;100.00
70407;BME280;57821;52.202;0.154;2023-03-21T08:26:12;100896.16;;;10.35;100.00
70407;BME280;57821;52.202;0.154;2023-03-21T08:28:38;100893.56;;;10.36;100.00
70407;BME280;57821;52.202;0.154;2023-03-21T08:31:09;100897.00;;;10.41;100.00
70407;BME280;57821;52.202;0.154;2023-03-21T08:33:36;100898.75;;;10.42;100.00
70407;BME280;57821;52.202;0.154;2023-03-21T08:36:04;100903.91;;;10.45;100.00
70407;BME280;57821;52.202;0.154;2023-03-21T08:38:32;100904.78;;;10.44;100.00
70407;BME280;57821;52.202;0.154;2023-03-21T08:40:59;100903.94;;;10.48;100.00
70407;BME280;57821;52.202;0.154;2023-03-21T08:43:26;100897.00;;;10.50;100.00
70407;BME280;57821;52.202;0.154;2023-03-21T08:45:54;100897.00;;;10.53;100.00
70407;BME280;57821;52.202;0.154;2023-03-21T08:48:21;100910.81;;;10.58;100.00
70407;BME280;57821;52.202;0.154;2023-03-21T08:50:48;100912.53;;;10.62;100.00
70407;BME280;57821;52.202;0.154;2023-03-21T08:53:14;100913.38;;;10.67;100.00
70407;BME280;57821;52.202;0.154;2023-03-21T08:55:42;100899.59;;;10.65;100.00
70407;BME280;57821;52.202;0.154;2023-03-21T08:58:09;100909.06;;;10.69;100.00
70407;BME280;57821;52.202;0.154;2023-03-21T09:00:35;100909.94;;;10.75;100.00
70407;BME280;57821;52.202;0.154;2023-03-21T09:03:02;100901.28;;;10.77;100.00
70407;BME280;57821;52.202;0.154;2023-03-21T09:05:29;100902.13;;;10.81;100.00
70407;BME280;57821;52.202;0.154;2023-03-21T09:07:55;100903.84;;;10.85;100.00
70407;BME280;57821;52.202;0.154;2023-03-21T09:10:22;100896.03;;;10.91;100.00
70407;BME280;57821;52.202;0.154;2023-03-21T09:12:50;100893.44;;;11.00;100.00
70407;BME280;57821;52.202;0.154;2023-03-21T09:15:17;100888.22;;;11.09;100.00
70407;BME280;57821;52.202;0.154;2023-03-21T09:17:44;100884.66;;;11.25;100.00
70407;BME280;57821;52.202;0.154;2023-03-21T09:20:12;100871.56;;;11.49;100.00
70407;BME280;57821;52.202;0.154;2023-03-21T09:22:39;100878.34;;;11.78;100.00
70407;BME280;57821;52.202;0.154;2023-03-21T09:25:08;100863.41;;;12.07;100.00
70407;BME280;57821;52.202;0.154;2023-03-21T09:27:34;100863.16;;;12.36;100.00
70407;BME280;57821;52.202;0.154;2023-03-21T09:30:01;100863.78;;;12.61;100.00
70407;BME280;57821;52.202;0.154;2023-03-21T09:32:28;100863.53;;;12.84;100.00
70407;BME280;57821;52.202;0.154;2023-03-21T09:34:54;100861.59;;;13.01;100.00
70407;BME280;57821;52.202;0.154;2023-03-21T09:37:20;100857.06;;;13.20;100.00
70407;BME280;57821;52.202;0.154;2023-03-21T09:39:47;100853.41;;;13.34;100.00
70407;BME280;57821;52.202;0.154;2023-03-21T09:45:06;100859.81;;;13.73;100.00
70407;BME280;57821;52.202;0.154;2023-03-21T09:47:48;100863.69;;;14.02;100.00
70407;BME280;57821;52.202;0.154;2023-03-21T09:50:18;100860.72;;;14.23;100.00
70407;BME280;57821;52.202;0.154;2023-03-21T09:52:50;100843.16;;;14.37;100.00
70407;BME280;57821;52.202;0.154;2023-03-21T09:55:25;100851.75;;;14.42;100.00
70407;BME280;57821;52.202;0.154;2023-03-21T09:58:14;100843.81;;;14.48;100.00
70407;BME280;57821;52.202;0.154;2023-03-21T10:00:48;100856.78;;;14.51;100.00
70407;BME280;57821;52.202;0.154;2023-03-21T10:03:20;100852.59;;;14.44;100.00
70407;BME280;57821;52.202;0.154;2023-03-21T10:05:47;100862.25;;;14.36;100.00
70407;BME280;57821;52.202;0.154;2023-03-21T10:08:34;100853.59;;;14.34;100.00
70407;BME280;57821;52.202;0.154;2023-03-21T10:13:43;100833.88;;;14.18;100.00
70407;BME280;57821;52.202;0.154;2023-03-21T10:16:20;100851.25;;;14.19;100.00
70407;BME280;57821;52.202;0.154;2023-03-21T10:18:50;100842.66;;;14.14;100.00
70407;BME280;57821;52.202;0.154;2023-03-21T10:21:23;100833.31;;;14.01;100.00
70407;BME280;57821;52.202;0.154;2023-03-21T10:24:15;100825.69;;;13.88;100.00
70407;BME280;57821;52.202;0.154;2023-03-21T10:26:44;100825.84;;;13.79;100.00
70407;BME280;57821;52.202;0.154;2023-03-21T10:29:13;100837.97;;;13.80;100.00
70407;BME280;57821;52.202;0.154;2023-03-21T10:31:41;100809.34;;;13.77;100.00
70407;BME280;57821;52.202;0.154;2023-03-21T10:34:32;100825.88;;;13.75;100.00
70407;BME280;57821;52.202;0.154;2023-03-21T10:37:02;100828.53;;;13.73;100.00
70407;BME280;57821;52.202;0.154;2023-03-21T10:39:36;100813.00;;;13.67;100.00
70407;BME280;57821;52.202;0.154;2023-03-21T10:42:04;100809.44;;;13.71;100.00
70407;BME280;57821;52.202;0.154;2023-03-21T10:44:32;100814.56;;;13.77;100.00
70407;BME280;57821;52.202;0.154;2023-03-21T10:47:08;100809.34;;;13.79;100.00
70407;BME280;57821;52.202;0.154;2023-03-21T10:49:36;100804.16;;;13.77;100.00
70407;BME280;57821;52.202;0.154;2023-03-21T10:52:26;100800.75;;;13.72;100.00
70407;BME280;57821;52.202;0.154;2023-03-21T10:55:17;100800.75;;;13.72;100.00
70407;BME280;57821;52.202;0.154;2023-03-21T10:57:45;100787.72;;;13.72;100.00
70407;BME280;57821;52.202;0.154;2023-03-21T11:00:19;100793.63;;;13.83;100.00
70407;BME280;57821;52.202;0.154;2023-03-21T11:02:47;100809.03;;;13.97;100.00
70407;BME280;57821;52.202;0.154;2023-03-21T11:05:16;100795.16;;;13.96;100.00
70407;BME280;57821;52.202;0.154;2023-03-21T11:07:46;100796.06;;;13.92;100.00
70407;BME280;57821;52.202;0.154;2023-03-21T11:10:24;100795.09;;;13.98;100.00
70407;BME280;57821;52.202;0.154;2023-03-21T11:12:56;100796.63;;;14.10;100.00
70407;BME280;57821;52.202;0.154;2023-03-21T11:17:58;100786.75;;;14.28;100.00
70407;BME280;57821;52.202;0.154;2023-03-21T11:20:30;100789.31;;;14.31;100.00
70407;BME280;57821;52.202;0.154;2023-03-21T11:22:57;100789.19;;;14.39;100.00
70407;BME280;57821;52.202;0.154;2023-03-21T11:25:35;100785.66;;;14.43;100.00
70407;BME280;57821;52.202;0.154;2023-03-21T11:28:13;100770.09;;;14.37;100.00
70407;BME280;57821;52.202;0.154;2023-03-21T11:33:22;100764.13;;;14.30;100.00
70407;BME280;57821;52.202;0.154;2023-03-21T11:35:58;100780.66;;;14.28;100.00
70407;BME280;57821;52.202;0.154;2023-03-21T11:38:29;100785.88;;;14.28;100.00
70407;BME280;57821;52.202;0.154;2023-03-21T11:40:59;100782.47;;;14.24;100.00
70407;BME280;57821;52.202;0.154;2023-03-21T11:43:29;100781.78;;;14.15;98.57
70407;BME280;57821;52.202;0.154;2023-03-21T11:46:07;100762.06;;;13.98;100.00
70407;BME280;57821;52.202;0.154;2023-03-21T11:48:45;100780.31;;;14.00;100.00
70407;BME280;57821;52.202;0.154;2023-03-21T11:51:26;100758.56;;;14.01;100.00
70407;BME280;57821;52.202;0.154;2023-03-21T11:57:28;100767.81;;;14.19;100.00
70407;BME280;57821;52.202;0.154;2023-03-21T12:02:51;100764.22;;;14.26;100.00
70407;BME280;57821;52.202;0.154;2023-03-21T12:05:29;100759.81;;;14.28;100.00
70407;BME280;57821;52.202;0.154;2023-03-21T12:08:11;100748.47;;;14.29;99.84
70407;BME280;57821;52.202;0.154;2023-03-21T12:15:49;100744.03;;;14.37;100.00
70407;BME280;57821;52.202;0.154;2023-03-21T12:18:36;100742.22;;;14.39;100.00
70407;BME280;57821;52.202;0.154;2023-03-21T12:21:50;100746.56;;;14.40;100.00
70407;BME280;57821;52.202;0.154;2023-03-21T12:26:45;100740.13;;;14.58;100.00
70407;BME280;57821;52.202;0.154;2023-03-21T12:40:35;100725.56;;;15.26;100.00
70407;BME280;57821;52.202;0.154;2023-03-21T12:43:36;100723.72;;;15.31;100.00
70407;BME280;57821;52.202;0.154;2023-03-21T12:46:18;100712.16;;;15.41;100.00
70407;BME280;57821;52.202;0.154;2023-03-21T12:48:54;100714.47;;;15.55;96.75
70407;BME280;57821;52.202;0.154;2023-03-21T12:51:27;100699.59;;;15.57;96.81
70407;BME280;57821;52.202;0.154;2023-03-21T12:54:08;100706.19;;;15.72;98.39
70407;BME280;57821;52.202;0.154;2023-03-21T12:56:50;100683.47;;;15.74;98.16
70407;BME280;57821;52.202;0.154;2023-03-21T13:01:59;100692.91;;;16.13;97.44
70407;BME280;57821;52.202;0.154;2023-03-21T13:07:05;100686.72;;;16.47;91.06
70407;BME280;57821;52.202;0.154;2023-03-21T13:09:38;100683.19;;;16.48;94.66
70407;BME280;57821;52.202;0.154;2023-03-21T13:20:47;100674.97;;;16.30;90.66
70407;BME280;57821;52.202;0.154;2023-03-21T13:23:18;100671.88;;;16.16;93.50
70407;BME280;57821;52.202;0.154;2023-03-21T13:25:48;100683.38;;;16.11;90.96
70407;BME280;57821;52.202;0.154;2023-03-21T13:28:27;100679.38;;;15.96;94.86
70407;BME280;57821;52.202;0.154;2023-03-21T13:33:46;100672.25;;;15.70;87.55
70407;BME280;57821;52.202;0.154;2023-03-21T13:36:34;100674.91;;;15.69;100.00
70407;BME280;57821;52.202;0.154;2023-03-21T13:39:03;100662.69;;;15.69;93.24
70407;BME280;57821;52.202;0.154;2023-03-21T13:41:34;100665.03;;;15.80;91.08
70407;BME280;57821;52.202;0.154;2023-03-21T13:49:45;100673.50;;;16.20;87.34
70407;BME280;57821;52.202;0.154;2023-03-21T13:51:51;100660.97;;;16.31;80.43
70407;BME280;57821;52.202;0.154;2023-03-21T13:56:56;100659.84;;;16.40;83.25
70407;BME280;57821;52.202;0.154;2023-03-21T14:04:38;100659.56;;;16.80;74.10
70407;BME280;57821;52.202;0.154;2023-03-21T14:07:32;100652.06;;;16.96;74.15
70407;BME280;57821;52.202;0.154;2023-03-21T14:10:03;100646.94;;;17.19;72.72
70407;BME280;57821;52.202;0.154;2023-03-21T14:12:39;100710.47;;;17.53;72.92
70407;BME280;57821;52.202;0.154;2023-03-21T14:15:21;100663.97;;;17.60;64.14
70407;BME280;57821;52.202;0.154;2023-03-21T14:17:53;100653.47;;;17.60;70.04
70407;BME280;57821;52.202;0.154;2023-03-21T14:20:32;100656.97;;;17.59;72.59
70407;BME280;57821;52.202;0.154;2023-03-21T14:22:59;100662.53;;;17.50;70.88
70407;BME280;57821;52.202;0.154;2023-03-21T14:25:32;100651.88;;;17.30;74.07
70407;BME280;57821;52.202;0.154;2023-03-21T14:28:21;100657.75;;;17.10;69.56
70407;BME280;57821;52.202;0.154;2023-03-21T14:30:52;100649.00;;;16.83;68.92
70407;BME280;57821;52.202;0.154;2023-03-21T14:33:25;100654.78;;;16.65;69.76
70407;BME280;57821;52.202;0.154;2023-03-21T14:35:56;100655.91;;;16.55;70.14
70407;BME280;57821;52.202;0.154;2023-03-21T14:38:26;100636.28;;;16.41;69.34
70407;BME280;57821;52.202;0.154;2023-03-21T14:40:57;100643.47;;;16.33;69.25
70407;BME280;57821;52.202;0.154;2023-03-21T14:43:25;100648.97;;;16.24;67.85
70407;BME280;57821;52.202;0.154;2023-03-21T14:45:55;100648.19;;;16.21;70.31
70407;BME280;57821;52.202;0.154;2023-03-21T14:48:29;100640.22;;;16.25;71.74
70407;BME280;57821;52.202;0.154;2023-03-21T14:51:00;100633.19;;;16.27;69.94